Time;durP1;ratioP1;P1;durP2;ratioP2;P2;SDS_P1;SDS_P2;PMS_P1;PMS_P2;Temp;Humidity;BMP_temperature;BMP_pressure;BME280_temperature;BME280_humidity;BME280_pressure;Samples;Min_cycle;Max_cycle;Signal;HPM_P1;HPM_P2
2021/01/31 00:00:45;;;;;;;5.90;5.30;;;3.50;99.90;;;;;;5136643;27;20845;-37
2021/01/31 00:03:18;;;;;;;5.13;4.60;;;3.40;99.90;;;;;;5136972;27;20404;-38
2021/01/31 00:05:45;;;;;;;5.77;5.27;;;3.40;99.90;;;;;;5136150;27;20515;-37
2021/01/31 00:08:12;;;;;;;5.53;5.03;;;3.40;99.90;;;;;;5136119;27;20810;-37
2021/01/31 00:10:39;;;;;;;5.13;4.63;;;3.40;99.90;;;;;;5135646;27;20420;-37
2021/01/31 00:13:05;;;;;;;5.03;4.63;;;3.40;99.90;;;;;;5139018;27;20444;-36
2021/01/31 00:15:38;;;;;;;5.60;5.10;;;3.40;99.90;;;;;;5140249;27;20476;-37
2021/01/31 00:18:05;;;;;;;5.30;4.80;;;3.30;99.90;;;;;;5099219;28;20509;-36
2021/01/31 00:20:32;;;;;;;4.70;4.30;;;3.40;99.90;;;;;;5099888;28;20437;-37
2021/01/31 00:22:59;;;;;;;5.10;4.70;;;3.30;99.90;;;;;;5100371;28;20421;-37
2021/01/31 00:25:25;;;;;;;4.40;4.00;;;3.30;99.90;;;;;;5100715;28;20487;-36
2021/01/31 00:27:51;;;;;;;5.00;4.50;;;3.30;99.90;;;;;;5099761;28;20418;-44
2021/01/31 00:30:22;;;;;;;5.13;4.70;;;3.30;99.90;;;;;;5100062;28;20482;-44
2021/01/31 00:32:49;;;;;;;5.10;4.60;;;3.20;99.90;;;;;;5100368;28;20410;-44
2021/01/31 00:35:17;;;;;;;5.57;5.07;;;3.20;99.90;;;;;;5100670;28;20501;-44
2021/01/31 00:37:42;;;;;;;6.13;5.53;;;3.10;99.90;;;;;;5099116;28;20410;-44
2021/01/31 00:40:09;;;;;;;5.27;4.77;;;3.10;99.90;;;;;;5099858;28;20418;-44
2021/01/31 00:42:36;;;;;;;5.70;5.07;;;3.10;99.90;;;;;;5100932;28;20479;-44
2021/01/31 00:45:05;;;;;;;6.23;5.63;;;3.10;99.90;;;;;;5100652;28;20429;-44
2021/01/31 00:47:30;;;;;;;5.70;5.20;;;3.10;99.90;;;;;;5100315;28;20414;-44
2021/01/31 00:49:56;;;;;;;5.50;5.00;;;3.00;99.90;;;;;;5100684;28;20426;-44
2021/01/31 00:52:22;;;;;;;6.97;6.30;;;3.00;99.90;;;;;;5101317;28;20213;-44
2021/01/31 00:54:49;;;;;;;8.50;6.33;;;3.00;99.90;;;;;;5099973;28;20566;-44
2021/01/31 00:57:15;;;;;;;7.50;6.80;;;3.00;99.90;;;;;;5100268;28;20544;-44
2021/01/31 00:59:41;;;;;;;6.80;6.03;;;3.10;99.90;;;;;;5100330;28;20441;-44
2021/01/31 01:02:09;;;;;;;7.23;6.53;;;3.00;99.90;;;;;;5100790;28;20406;-44
2021/01/31 01:04:35;;;;;;;5.40;4.90;;;3.10;99.90;;;;;;5101136;28;20551;-44
2021/01/31 01:07:01;;;;;;;5.87;5.37;;;3.10;99.90;;;;;;5100278;28;20441;-44
2021/01/31 01:09:27;;;;;;;6.17;5.57;;;3.10;99.90;;;;;;5100434;28;20438;-44
2021/01/31 01:11:53;;;;;;;6.10;5.50;;;3.10;99.90;;;;;;5101069;28;20192;-44
2021/01/31 01:14:18;;;;;;;5.83;5.33;;;3.10;99.90;;;;;;5100609;28;20457;-44
2021/01/31 01:16:44;;;;;;;6.27;5.67;;;3.10;99.90;;;;;;5120792;27;20827;-44
2021/01/31 01:19:10;;;;;;;5.60;5.10;;;3.10;99.90;;;;;;5140826;27;20206;-44
2021/01/31 01:21:36;;;;;;;5.47;4.97;;;3.20;99.90;;;;;;5141691;27;20569;-44
2021/01/31 01:24:02;;;;;;;6.10;5.60;;;3.20;99.90;;;;;;5140614;27;20179;-44
2021/01/31 01:26:31;;;;;;;5.60;5.10;;;3.20;99.90;;;;;;5141773;27;20687;-44
2021/01/31 01:28:57;;;;;;;6.10;5.60;;;3.20;99.90;;;;;;5141296;27;20437;-44
2021/01/31 01:31:24;;;;;;;6.53;5.93;;;3.20;99.90;;;;;;5141094;27;20528;-44
2021/01/31 01:33:50;;;;;;;7.53;6.83;;;3.20;99.90;;;;;;5141218;27;20429;-43
2021/01/31 01:36:16;;;;;;;7.67;6.97;;;3.30;99.90;;;;;;5140797;27;20468;-44
2021/01/31 01:38:42;;;;;;;7.13;6.47;;;3.20;99.90;;;;;;5141446;27;20416;-44
2021/01/31 01:41:08;;;;;;;6.83;6.23;;;3.20;99.90;;;;;;5141194;27;20409;-43
2021/01/31 01:43:34;;;;;;;8.20;7.40;;;3.30;99.90;;;;;;5140374;27;20437;-44
2021/01/31 01:46:18;;;;;;;7.30;6.60;;;3.20;99.90;;;;;;5141522;27;20448;-44
2021/01/31 01:48:49;;;;;;;8.23;7.30;;;3.30;99.90;;;;;;5140375;27;20456;-44
2021/01/31 01:51:17;;;;;;;8.37;7.53;;;3.30;99.90;;;;;;5140168;27;20864;-44
2021/01/31 01:53:43;;;;;;;7.33;6.60;;;3.30;99.90;;;;;;5139202;27;20413;-44
2021/01/31 01:56:17;;;;;;;7.83;7.10;;;3.30;99.90;;;;;;5138873;27;20464;-44
2021/01/31 01:58:44;;;;;;;8.20;7.40;;;3.20;99.90;;;;;;5139203;27;20416;-44
2021/01/31 02:01:10;;;;;;;9.53;8.57;;;3.20;99.90;;;;;;5139062;27;20410;-44
2021/01/31 02:03:40;;;;;;;8.53;7.60;;;3.30;99.90;;;;;;5140170;27;20404;-44
2021/01/31 02:06:19;;;;;;;10.77;9.57;;;3.30;99.90;;;;;;5140379;27;20409;-44
2021/01/31 02:08:45;;;;;;;9.93;8.73;;;3.30;99.90;;;;;;5138756;27;20523;-44
2021/01/31 02:11:12;;;;;;;9.77;8.77;;;3.30;99.90;;;;;;5139033;27;20818;-44
2021/01/31 02:13:39;;;;;;;9.40;8.50;;;3.30;99.90;;;;;;5139515;27;20519;-44
2021/01/31 02:16:24;;;;;;;10.33;9.23;;;3.20;99.90;;;;;;5138760;27;20480;-44
2021/01/31 02:19:06;;;;;;;10.07;9.07;;;3.20;99.90;;;;;;5139221;27;20443;-44
2021/01/31 02:22:04;;;;;;;10.60;9.57;;;3.30;99.90;;;;;;5139738;27;20413;-44
2021/01/31 02:24:54;;;;;;;11.10;9.30;;;3.30;99.90;;;;;;5138740;27;20752;-44
2021/01/31 02:27:58;;;;;;;10.67;9.33;;;3.20;99.90;;;;;;5138902;27;20420;-44
2021/01/31 02:30:38;;;;;;;16.50;10.40;;;3.20;99.90;;;;;;5107751;27;20816;-42
2021/01/31 02:33:33;;;;;;;10.77;9.63;;;3.20;99.90;;;;;;5139645;27;20401;-44
2021/01/31 02:36:13;;;;;;;9.87;8.87;;;3.20;99.90;;;;;;5139035;27;20922;-44
2021/01/31 02:38:55;;;;;;;11.67;10.40;;;3.20;99.90;;;;;;5139140;27;20412;-43
2021/01/31 02:41:46;;;;;;;12.23;11.03;;;3.20;99.90;;;;;;5139066;27;20496;-45
2021/01/31 02:44:16;;;;;;;11.50;9.73;;;3.20;99.90;;;;;;5138472;27;20846;-44
2021/01/31 02:46:48;;;;;;;13.00;11.63;;;3.20;99.90;;;;;;5138230;27;20424;-44
2021/01/31 02:49:21;;;;;;;13.07;11.30;;;3.10;99.90;;;;;;5138395;27;20794;-44
2021/01/31 02:52:07;;;;;;;12.43;10.47;;;3.10;99.90;;;;;;5139479;27;20424;-44
2021/01/31 02:55:00;;;;;;;16.13;10.83;;;3.10;99.90;;;;;;5139073;27;20464;-44
2021/01/31 02:57:59;;;;;;;10.90;9.80;;;3.10;99.90;;;;;;5138690;27;20472;-44
2021/01/31 03:00:28;;;;;;;14.30;11.83;;;3.10;99.90;;;;;;5131342;27;20429;-44
2021/01/31 03:03:12;;;;;;;13.23;11.47;;;3.10;99.90;;;;;;5138261;27;20413;-44
2021/01/31 03:05:45;;;;;;;14.53;11.57;;;3.10;99.90;;;;;;5139392;27;20432;-44
2021/01/31 03:08:33;;;;;;;12.10;10.80;;;3.10;99.90;;;;;;5137235;27;20807;-44
2021/01/31 03:11:26;;;;;;;13.20;11.60;;;3.10;99.90;;;;;;5137667;27;20424;-44
2021/01/31 03:13:53;;;;;;;14.43;12.70;;;3.00;99.90;;;;;;5138499;27;20709;-44
2021/01/31 03:16:27;;;;;;;15.50;12.80;;;2.90;99.90;;;;;;5137498;27;20472;-44
2021/01/31 03:19:01;;;;;;;13.60;11.87;;;2.80;99.90;;;;;;5137254;27;20443;-43
2021/01/31 03:21:30;;;;;;;15.00;13.00;;;2.80;99.90;;;;;;5137056;27;20447;-44
2021/01/31 03:24:10;;;;;;;15.10;13.37;;;2.80;99.90;;;;;;5137285;27;20456;-44
2021/01/31 03:26:42;;;;;;;13.73;12.17;;;2.80;99.90;;;;;;5137328;27;20413;-44
2021/01/31 03:29:08;;;;;;;13.20;11.80;;;2.80;99.90;;;;;;5120639;27;20842;-44
2021/01/31 03:31:38;;;;;;;14.13;11.50;;;2.90;99.90;;;;;;5136857;27;20814;-44
2021/01/31 03:34:08;;;;;;;13.17;11.80;;;2.90;99.90;;;;;;5137450;27;20440;-44
2021/01/31 03:36:35;;;;;;;15.10;12.80;;;2.80;99.90;;;;;;5137394;27;20471;-44
2021/01/31 03:39:02;;;;;;;14.53;12.93;;;2.80;99.90;;;;;;5137690;27;20440;-43
2021/01/31 03:41:29;;;;;;;13.50;11.87;;;2.80;99.90;;;;;;5138351;27;20421;-44
2021/01/31 03:43:55;;;;;;;13.10;11.37;;;2.80;99.90;;;;;;5137455;27;20447;-44
2021/01/31 03:46:34;;;;;;;14.40;12.90;;;2.80;99.90;;;;;;5138380;27;20818;-44
2021/01/31 03:49:13;;;;;;;13.13;11.77;;;2.80;99.90;;;;;;5138450;27;20428;-44
2021/01/31 03:51:39;;;;;;;12.90;11.60;;;2.90;99.90;;;;;;5138057;27;20413;-44
2021/01/31 03:54:07;;;;;;;13.60;12.17;;;2.80;99.90;;;;;;5138069;27;20436;-43
2021/01/31 03:56:45;;;;;;;13.93;12.00;;;2.70;99.90;;;;;;5137890;27;20923;-44
2021/01/31 03:59:16;;;;;;;13.03;11.37;;;2.70;99.90;;;;;;5137203;27;20914;-44
2021/01/31 04:01:42;;;;;;;13.03;11.10;;;2.70;99.90;;;;;;5137451;28;20656;-44
2021/01/31 04:04:16;;;;;;;13.70;12.23;;;2.60;99.90;;;;;;5137059;28;20428;-44
2021/01/31 04:06:42;;;;;;;13.37;11.73;;;2.60;99.90;;;;;;5137989;28;20420;-44
2021/01/31 04:09:11;;;;;;;14.60;12.47;;;2.50;99.90;;;;;;5136799;28;20819;-44
2021/01/31 04:11:38;;;;;;;14.07;12.40;;;2.50;99.90;;;;;;5137171;28;20435;-44
2021/01/31 04:14:26;;;;;;;15.10;13.37;;;2.50;99.90;;;;;;5137538;27;20440;-44
2021/01/31 04:16:53;;;;;;;14.33;12.50;;;2.60;99.90;;;;;;5136607;28;20503;-44
2021/01/31 04:19:20;;;;;;;15.07;12.50;;;2.60;99.90;;;;;;5137679;28;20430;-44
2021/01/31 04:21:46;;;;;;;15.70;13.67;;;2.60;99.90;;;;;;5137823;27;20439;-44
2021/01/31 04:24:12;;;;;;;14.57;12.67;;;2.60;99.90;;;;;;5137728;27;20433;-44
2021/01/31 04:26:39;;;;;;;16.20;13.13;;;2.60;99.90;;;;;;5136752;28;20230;-44
2021/01/31 04:29:05;;;;;;;15.70;12.80;;;2.70;99.90;;;;;;5137405;27;20434;-44
2021/01/31 04:31:32;;;;;;;12.70;10.93;;;2.70;99.90;;;;;;5138097;27;20473;-44
2021/01/31 04:33:57;;;;;;;14.57;12.47;;;2.70;99.90;;;;;;5137540;27;20428;-44
2021/01/31 04:36:25;;;;;;;13.80;12.23;;;2.70;99.90;;;;;;5137473;27;20464;-44
2021/01/31 04:38:52;;;;;;;13.63;11.70;;;2.80;99.90;;;;;;5137915;27;20491;-44
2021/01/31 04:41:18;;;;;;;15.27;12.90;;;2.70;99.90;;;;;;5137596;28;20444;-43
2021/01/31 04:43:45;;;;;;;14.37;12.50;;;2.80;99.90;;;;;;5136755;27;20711;-44
2021/01/31 04:46:17;;;;;;;15.63;12.73;;;2.80;99.90;;;;;;5136546;28;20712;-42
2021/01/31 04:48:46;;;;;;;17.70;13.37;;;2.80;99.90;;;;;;5136174;28;20495;-44
2021/01/31 04:51:22;;;;;;;14.93;13.33;;;2.80;99.90;;;;;;5137723;28;20496;-44
2021/01/31 04:54:13;;;;;;;14.87;13.20;;;2.80;99.90;;;;;;5137058;28;20424;-44
2021/01/31 04:57:05;;;;;;;14.27;12.00;;;2.80;99.90;;;;;;5137215;28;20547;-44
2021/01/31 04:59:37;;;;;;;13.43;12.00;;;2.70;99.90;;;;;;5140144;27;20461;-42
2021/01/31 05:02:10;;;;;;;14.30;12.10;;;2.80;99.90;;;;;;5141114;27;20484;-44
2021/01/31 05:05:08;;;;;;;15.40;13.07;;;2.80;99.90;;;;;;5142003;27;20432;-44
2021/01/31 05:07:43;;;;;;;16.10;12.83;;;2.80;99.90;;;;;;5140719;27;20432;-44
2021/01/31 05:10:10;;;;;;;14.60;12.53;;;2.80;99.90;;;;;;5140789;27;20424;-44
2021/01/31 05:13:14;;;;;;;16.70;14.57;;;2.80;99.90;;;;;;5141958;27;20445;-44
2021/01/31 05:15:58;;;;;;;16.17;13.90;;;2.80;99.90;;;;;;5141666;27;20468;-43
2021/01/31 05:18:24;;;;;;;17.73;14.23;;;2.80;99.90;;;;;;5141746;27;20424;-44
2021/01/31 05:20:56;;;;;;;17.17;14.40;;;2.80;99.90;;;;;;5140672;27;20775;-44
2021/01/31 05:23:22;;;;;;;16.20;13.90;;;2.80;99.90;;;;;;5141322;27;20448;-44
2021/01/31 05:25:48;;;;;;;15.90;13.13;;;2.80;99.90;;;;;;5139968;27;20484;-44
2021/01/31 05:28:14;;;;;;;16.43;14.20;;;2.80;99.90;;;;;;5140193;27;20182;-44
2021/01/31 05:30:44;;;;;;;17.90;14.93;;;2.80;99.90;;;;;;5140677;27;20282;-44
2021/01/31 05:33:23;;;;;;;17.10;14.20;;;2.90;99.90;;;;;;5140365;27;20441;-44
2021/01/31 05:35:52;;;;;;;16.33;14.00;;;2.90;99.90;;;;;;5140457;27;20471;-44
2021/01/31 05:38:39;;;;;;;16.10;14.03;;;2.90;99.90;;;;;;5140875;27;20527;-44
2021/01/31 05:41:32;;;;;;;15.10;12.13;;;2.80;99.90;;;;;;5141454;27;20448;-44
2021/01/31 05:44:03;;;;;;;17.30;14.00;;;2.80;99.90;;;;;;5140942;27;20511;-44
2021/01/31 05:46:39;;;;;;;17.33;14.27;;;2.70;99.90;;;;;;5140293;27;20454;-44
2021/01/31 05:49:10;;;;;;;15.33;13.70;;;2.70;99.90;;;;;;5139482;27;20558;-44
2021/01/31 05:51:36;;;;;;;15.63;13.23;;;2.70;99.90;;;;;;5140538;27;20438;-43
2021/01/31 05:54:19;;;;;;;16.63;12.87;;;2.60;99.90;;;;;;5139445;27;20428;-44
2021/01/31 05:56:46;;;;;;;17.73;14.50;;;2.60;99.90;;;;;;5140027;27;20458;-44
2021/01/31 05:59:13;;;;;;;18.60;14.90;;;2.60;99.90;;;;;;5139027;27;20436;-44
2021/01/31 06:01:56;;;;;;;21.27;15.60;;;2.60;99.90;;;;;;5140705;27;20845;-44
2021/01/31 06:04:24;;;;;;;22.00;16.00;;;2.60;99.90;;;;;;5138886;27;20780;-44
2021/01/31 06:06:51;;;;;;;19.33;15.33;;;2.60;99.90;;;;;;5140768;27;20444;-44
2021/01/31 06:09:34;;;;;;;19.13;13.43;;;2.70;99.90;;;;;;5138447;27;20448;-44
2021/01/31 06:12:10;;;;;;;16.90;14.80;;;2.70;99.90;;;;;;5128654;27;20421;-44
2021/01/31 06:14:39;;;;;;;16.17;13.73;;;2.70;99.90;;;;;;5133713;27;20739;-43
2021/01/31 06:17:14;;;;;;;17.37;13.90;;;2.70;99.90;;;;;;5131005;27;20897;-44
2021/01/31 06:19:42;;;;;;;19.37;14.70;;;2.80;99.90;;;;;;5140121;27;20432;-44
2021/01/31 06:22:11;;;;;;;18.43;15.03;;;2.80;99.90;;;;;;5139096;27;20770;-44
2021/01/31 06:24:47;;;;;;;21.03;15.20;;;2.80;99.90;;;;;;5140527;27;20786;-44
2021/01/31 06:27:31;;;;;;;17.80;14.10;;;2.80;99.90;;;;;;5140333;27;20451;-44
2021/01/31 06:30:11;;;;;;;18.50;16.50;;;2.80;99.90;;;;;;5140115;27;20428;-44
2021/01/31 06:32:37;;;;;;;16.13;14.33;;;2.80;99.90;;;;;;5134224;27;20432;-44
2021/01/31 06:35:12;;;;;;;19.60;15.53;;;2.80;99.90;;;;;;5134092;27;20455;-44
2021/01/31 06:38:09;;;;;;;19.83;15.10;;;2.80;99.90;;;;;;5126901;27;20532;-44
2021/01/31 06:40:44;;;;;;;21.47;15.67;;;2.80;99.90;;;;;;5130233;27;20427;-44
2021/01/31 06:43:10;;;;;;;19.27;14.27;;;2.90;99.90;;;;;;5137105;27;20420;-45
2021/01/31 06:45:52;;;;;;;21.10;16.17;;;2.80;99.90;;;;;;5139200;27;20500;-44
2021/01/31 06:48:18;;;;;;;21.13;15.17;;;2.80;99.90;;;;;;5121019;27;20436;-43
2021/01/31 06:50:47;;;;;;;20.50;16.10;;;2.80;99.90;;;;;;5139721;27;20836;-44
2021/01/31 06:53:18;;;;;;;22.23;16.93;;;2.80;99.90;;;;;;5139826;27;20289;-44
2021/01/31 06:56:06;;;;;;;24.57;17.53;;;2.70;99.90;;;;;;5139118;27;20476;-43
2021/01/31 06:59:29;;;;;;;22.57;16.60;;;2.70;99.90;;;;;;5117360;28;20530;-43
2021/01/31 07:02:07;;;;;;;19.97;15.57;;;2.70;99.90;;;;;;5116044;28;20741;-44
2021/01/31 07:05:06;;;;;;;21.60;16.27;;;2.70;99.90;;;;;;5117251;28;20430;-44
2021/01/31 07:07:58;;;;;;;21.47;15.67;;;2.70;99.90;;;;;;5126688;27;20428;-44
2021/01/31 07:10:38;;;;;;;19.27;15.10;;;2.80;99.90;;;;;;5127351;27;20433;-44
2021/01/31 07:13:23;;;;;;;21.40;15.30;;;2.80;99.90;;;;;;5135763;27;20405;-43
2021/01/31 07:16:16;;;;;;;21.93;16.20;;;2.90;99.90;;;;;;5138395;27;20468;-44
2021/01/31 07:18:46;;;;;;;20.00;15.70;;;2.90;99.90;;;;;;5118745;28;20418;-43
2021/01/31 07:21:24;;;;;;;20.43;15.97;;;3.00;99.90;;;;;;5136347;27;20504;-44
2021/01/31 07:23:50;;;;;;;19.30;15.83;;;2.90;99.90;;;;;;5138408;27;20400;-44
2021/01/31 07:26:40;;;;;;;20.37;16.80;;;2.90;99.90;;;;;;5137869;27;20502;-44
2021/01/31 07:29:08;;;;;;;19.00;15.83;;;2.90;99.90;;;;;;5138494;27;20436;-44
2021/01/31 07:31:36;;;;;;;20.53;16.50;;;2.90;99.90;;;;;;5137932;27;20431;-44
2021/01/31 07:34:08;;;;;;;21.23;17.00;;;2.90;99.90;;;;;;5138112;27;20525;-44
2021/01/31 07:37:08;;;;;;;18.27;14.17;;;2.90;99.90;;;;;;5136324;27;20456;-44
2021/01/31 07:40:06;;;;;;;21.07;17.10;;;2.90;99.90;;;;;;5138980;27;20487;-44
2021/01/31 07:42:35;;;;;;;18.63;14.30;;;2.90;99.90;;;;;;5138065;27;20838;-44
2021/01/31 07:45:06;;;;;;;19.40;15.07;;;2.90;99.90;;;;;;5138833;27;20471;-43
2021/01/31 07:47:32;;;;;;;18.20;14.60;;;3.00;99.90;;;;;;5125038;27;20819;-44
2021/01/31 07:50:03;;;;;;;19.67;16.10;;;3.00;99.90;;;;;;5119040;28;20437;-44
2021/01/31 07:52:53;;;;;;;21.57;16.47;;;3.00;99.90;;;;;;5137614;27;20197;-44
2021/01/31 07:55:30;;;;;;;17.17;14.13;;;3.00;99.90;;;;;;5136916;27;20614;-43
2021/01/31 07:58:06;;;;;;;19.93;15.63;;;3.10;99.90;;;;;;5135778;27;20431;-44
2021/01/31 08:00:37;;;;;;;21.23;16.53;;;3.00;99.90;;;;;;5136296;27;20756;-44
2021/01/31 08:03:27;;;;;;;21.00;15.60;;;3.00;99.90;;;;;;5134793;28;20485;-44
2021/01/31 08:05:55;;;;;;;18.90;13.70;;;3.10;99.90;;;;;;5135256;28;20444;-43
2021/01/31 08:08:40;;;;;;;20.13;15.80;;;3.10;99.90;;;;;;5136230;28;20810;-43
2021/01/31 08:11:10;;;;;;;20.10;14.40;;;3.10;99.90;;;;;;5137329;27;20436;-44
2021/01/31 08:13:42;;;;;;;18.17;15.00;;;3.20;99.90;;;;;;5137271;28;20741;-44
2021/01/31 08:16:42;;;;;;;18.60;14.73;;;3.10;99.90;;;;;;5137624;27;20688;-44
2021/01/31 08:19:08;;;;;;;18.40;15.13;;;3.20;99.90;;;;;;5138392;28;20420;-44
2021/01/31 08:21:51;;;;;;;16.70;14.90;;;3.20;99.90;;;;;;5133614;27;20753;-44
2021/01/31 08:24:55;;;;;;;17.10;14.13;;;3.20;99.90;;;;;;5118015;28;20425;-43
2021/01/31 08:27:41;;;;;;;17.43;14.17;;;3.20;99.90;;;;;;5129411;28;20589;-44
2021/01/31 08:30:35;;;;;;;18.00;14.17;;;3.20;99.90;;;;;;5134180;28;20443;-44
2021/01/31 08:33:05;;;;;;;18.20;14.40;;;3.30;99.90;;;;;;5138273;27;20508;-44
2021/01/31 08:35:38;;;;;;;18.67;14.57;;;3.30;99.90;;;;;;5124216;27;20443;-44
2021/01/31 08:38:14;;;;;;;16.07;13.43;;;3.30;99.90;;;;;;5142047;27;20445;-44
2021/01/31 08:43:37;;;;;;;17.80;14.00;;;3.30;99.90;;;;;;5120214;28;20416;-44
2021/01/31 08:46:28;;;;;;;17.40;13.60;;;3.40;99.90;;;;;;5121921;27;20537;-44
2021/01/31 08:49:02;;;;;;;18.50;15.17;;;3.40;99.90;;;;;;5142331;27;20439;-43
2021/01/31 08:51:30;;;;;;;15.63;13.70;;;3.40;99.90;;;;;;5142107;27;20591;-44
2021/01/31 08:54:17;;;;;;;15.43;11.83;;;3.30;99.90;;;;;;5142455;27;20662;-44
2021/01/31 08:56:56;;;;;;;14.33;12.50;;;3.30;99.90;;;;;;5140288;27;20757;-45
2021/01/31 08:59:37;;;;;;;17.10;13.10;;;3.30;99.90;;;;;;5141227;27;20455;-44
2021/01/31 09:02:17;;;;;;;13.90;12.50;;;3.40;99.90;;;;;;5132356;27;20520;-42
2021/01/31 09:05:06;;;;;;;15.10;11.47;;;3.40;99.90;;;;;;5119362;28;20492;-43
2021/01/31 09:07:35;;;;;;;13.90;12.37;;;3.50;99.90;;;;;;5122384;27;20425;-44
2021/01/31 09:10:07;;;;;;;16.60;14.17;;;3.60;99.90;;;;;;5139577;27;20489;-44
2021/01/31 09:12:33;;;;;;;14.63;13.03;;;3.60;99.90;;;;;;5139874;27;20493;-44
2021/01/31 09:15:23;;;;;;;13.77;12.20;;;3.80;99.90;;;;;;5139228;27;20497;-44
2021/01/31 09:17:49;;;;;;;17.73;12.73;;;3.90;99.90;;;;;;5138732;27;20472;-44
2021/01/31 09:20:26;;;;;;;12.77;11.43;;;4.00;99.90;;;;;;5139148;27;20636;-44
2021/01/31 09:22:54;;;;;;;13.70;12.27;;;4.10;99.90;;;;;;5138847;27;20515;-44
2021/01/31 09:25:22;;;;;;;11.90;10.70;;;4.20;99.90;;;;;;5138264;27;20436;-44
2021/01/31 09:27:59;;;;;;;13.63;12.23;;;4.30;99.90;;;;;;5139993;27;20408;-43
2021/01/31 09:30:26;;;;;;;12.93;11.63;;;4.40;99.90;;;;;;5141058;27;20527;-44
2021/01/31 09:32:56;;;;;;;13.53;12.10;;;4.50;99.90;;;;;;5140390;27;20413;-44
2021/01/31 09:35:30;;;;;;;13.80;12.40;;;4.50;99.90;;;;;;5139985;27;20429;-45
2021/01/31 09:38:12;;;;;;;11.43;10.30;;;4.40;99.90;;;;;;5126697;27;20864;-46
2021/01/31 09:40:39;;;;;;;6.60;5.87;;;4.50;99.90;;;;;;5119376;28;20760;-45
2021/01/31 09:43:07;;;;;;;9.53;8.20;;;4.70;99.90;;;;;;5137434;27;20424;-45
2021/01/31 09:45:38;;;;;;;10.97;9.80;;;5.30;99.90;;;;;;5140916;27;20485;-44
2021/01/31 09:48:08;;;;;;;14.40;12.90;;;5.90;99.90;;;;;;5139988;27;20421;-46
2021/01/31 09:50:35;;;;;;;11.77;10.57;;;6.50;99.90;;;;;;5140135;27;20437;-46
2021/01/31 09:53:01;;;;;;;9.77;8.87;;;6.90;99.90;;;;;;5139674;27;20465;-46
2021/01/31 09:55:39;;;;;;;9.13;8.33;;;7.20;99.90;;;;;;5141057;27;20849;-45
2021/01/31 09:58:24;;;;;;;9.17;8.23;;;7.70;99.90;;;;;;5122022;27;20456;-45
2021/01/31 10:00:51;;;;;;;7.30;6.70;;;8.20;99.90;;;;;;5119037;28;20429;-47
2021/01/31 10:03:28;;;;;;;9.17;8.37;;;8.60;99.40;;;;;;5138891;27;20427;-46
2021/01/31 10:06:15;;;;;;;7.43;6.73;;;8.80;96.30;;;;;;5140149;27;20428;-46
2021/01/31 10:08:59;;;;;;;8.27;7.47;;;9.10;96.20;;;;;;5136218;27;20456;-46
2021/01/31 10:11:28;;;;;;;10.33;9.33;;;9.20;95.60;;;;;;5123700;27;20401;-41
2021/01/31 10:13:55;;;;;;;10.43;9.43;;;9.20;93.00;;;;;;5142354;27;20523;-36
2021/01/31 10:16:24;;;;;;;10.13;9.23;;;8.60;91.90;;;;;;5139812;27;20481;-36
2021/01/31 10:18:50;;;;;;;11.73;10.73;;;8.10;92.50;;;;;;5140317;27;20450;-37
2021/01/31 10:21:31;;;;;;;10.67;9.70;;;7.70;92.80;;;;;;5140078;27;20833;-36
2021/01/31 10:24:15;;;;;;;12.20;11.17;;;7.50;93.50;;;;;;5138961;27;20432;-36
2021/01/31 10:26:41;;;;;;;11.80;10.60;;;7.20;94.30;;;;;;5139172;27;20404;-35
2021/01/31 10:29:08;;;;;;;12.40;11.30;;;7.10;95.30;;;;;;5138088;27;20772;-37
2021/01/31 10:31:39;;;;;;;12.17;10.87;;;7.00;94.80;;;;;;5134486;27;20556;-36
2021/01/31 10:34:09;;;;;;;14.03;12.63;;;6.80;94.90;;;;;;5134391;27;20433;-36
2021/01/31 10:36:42;;;;;;;12.90;11.60;;;6.50;95.30;;;;;;5121155;27;20564;-36
2021/01/31 10:39:15;;;;;;;12.77;11.50;;;6.30;96.40;;;;;;5137042;27;20475;-36
2021/01/31 10:41:42;;;;;;;12.60;11.30;;;6.20;96.60;;;;;;5134249;27;20418;-36
2021/01/31 10:44:20;;;;;;;12.90;11.60;;;6.20;97.40;;;;;;5117401;28;20463;-36
2021/01/31 10:46:46;;;;;;;13.23;11.93;;;6.10;98.00;;;;;;5123751;27;20404;-36
2021/01/31 10:49:13;;;;;;;12.60;11.37;;;6.30;98.20;;;;;;5139978;27;20460;-38
2021/01/31 10:51:40;;;;;;;13.90;12.40;;;6.40;97.80;;;;;;5138094;27;20409;-37
2021/01/31 10:54:06;;;;;;;12.47;11.17;;;6.50;97.40;;;;;;5139615;27;20535;-36
2021/01/31 10:56:32;;;;;;;12.23;11.00;;;6.50;97.30;;;;;;5139066;27;20499;-37
2021/01/31 10:58:58;;;;;;;13.40;12.00;;;6.40;97.00;;;;;;5139398;27;20424;-37
2021/01/31 11:01:24;;;;;;;13.20;11.90;;;6.30;97.40;;;;;;5139081;27;20417;-38
2021/01/31 11:03:50;;;;;;;13.20;11.80;;;6.20;97.60;;;;;;5138757;27;20554;-37
2021/01/31 11:06:17;;;;;;;13.83;12.43;;;6.20;97.70;;;;;;5139416;27;20450;-36
2021/01/31 11:08:43;;;;;;;13.70;12.27;;;6.10;97.60;;;;;;5139736;27;20409;-36
2021/01/31 11:11:09;;;;;;;14.33;12.47;;;6.00;98.20;;;;;;5126052;27;20416;-36
2021/01/31 11:13:35;;;;;;;14.17;12.67;;;5.90;97.90;;;;;;5137413;27;20409;-36
2021/01/31 11:16:02;;;;;;;14.70;13.20;;;5.90;98.30;;;;;;5137833;27;20468;-36
2021/01/31 11:18:29;;;;;;;14.70;13.20;;;5.80;98.40;;;;;;5138451;27;20405;-36
2021/01/31 11:20:55;;;;;;;15.10;13.50;;;5.90;98.60;;;;;;5139257;27;20489;-36
2021/01/31 11:23:21;;;;;;;14.90;13.40;;;5.90;98.70;;;;;;5132908;27;20477;-36
2021/01/31 11:25:48;;;;;;;14.23;12.70;;;5.90;98.60;;;;;;5139055;27;20745;-37
2021/01/31 11:28:17;;;;;;;13.80;12.40;;;6.00;98.60;;;;;;5127773;27;20424;-36
2021/01/31 11:30:44;;;;;;;14.63;13.23;;;6.00;98.10;;;;;;5137494;27;20513;-37
2021/01/31 11:33:10;;;;;;;14.63;13.13;;;6.00;97.50;;;;;;5139199;27;20529;-37
2021/01/31 11:35:36;;;;;;;17.27;14.00;;;5.90;97.40;;;;;;5139189;27;20433;-37
2021/01/31 11:38:02;;;;;;;15.37;13.77;;;5.70;97.90;;;;;;5138360;27;20752;-37
2021/01/31 11:40:28;;;;;;;15.50;13.83;;;5.60;98.20;;;;;;5138677;27;20424;-36
2021/01/31 11:42:55;;;;;;;15.10;13.47;;;5.50;98.50;;;;;;5138814;27;20477;-37
2021/01/31 11:45:23;;;;;;;14.40;12.90;;;5.40;98.80;;;;;;5138542;27;20428;-37
2021/01/31 11:47:51;;;;;;;15.20;13.50;;;5.40;98.80;;;;;;5139135;27;20443;-38
2021/01/31 11:50:18;;;;;;;16.90;14.00;;;5.30;98.70;;;;;;5138445;27;20436;-38
2021/01/31 11:52:44;;;;;;;16.90;13.57;;;5.30;98.80;;;;;;5138471;27;20444;-37
2021/01/31 11:55:11;;;;;;;17.20;15.40;;;5.30;99.30;;;;;;5119910;27;20946;-37
2021/01/31 11:57:37;;;;;;;17.13;15.30;;;5.30;99.80;;;;;;5129584;27;20460;-37
2021/01/31 12:00:05;;;;;;;14.93;13.43;;;5.50;99.90;;;;;;5139009;27;20412;-37
2021/01/31 12:02:30;;;;;;;14.77;13.20;;;5.60;99.30;;;;;;5126613;27;20460;-37
2021/01/31 12:04:57;;;;;;;14.70;13.03;;;5.50;99.10;;;;;;5118135;28;20522;-37
2021/01/31 12:08:09;;;;;;;16.37;14.67;;;5.50;99.20;;;;;;5128720;27;20187;-37
2021/01/31 12:10:35;;;;;;;17.27;14.70;;;5.30;99.80;;;;;;5119650;28;20854;-36
2021/01/31 12:13:02;;;;;;;15.27;12.97;;;5.40;99.90;;;;;;5133709;28;20421;-37
2021/01/31 12:15:28;;;;;;;17.37;13.83;;;5.40;99.90;;;;;;5138364;27;20858;-36
2021/01/31 12:17:54;;;;;;;15.87;13.90;;;5.50;99.40;;;;;;5136079;28;20539;-38
2021/01/31 12:20:20;;;;;;;17.63;15.00;;;5.40;99.40;;;;;;5136396;28;20539;-38
2021/01/31 12:22:47;;;;;;;17.67;15.77;;;5.40;99.50;;;;;;5136097;27;20458;-37
2021/01/31 12:25:14;;;;;;;17.07;14.43;;;5.30;99.90;;;;;;5137190;27;20441;-37
2021/01/31 12:27:47;;;;;;;17.13;15.03;;;5.30;99.90;;;;;;5137715;27;20421;-37
2021/01/31 12:30:14;;;;;;;18.60;14.30;;;5.30;99.90;;;;;;5138791;27;20448;-35
2021/01/31 12:32:40;;;;;;;17.53;15.73;;;5.30;99.90;;;;;;5138542;27;20436;-37
2021/01/31 12:35:07;;;;;;;17.33;14.87;;;5.30;99.90;;;;;;5138181;28;20777;-35
2021/01/31 12:37:33;;;;;;;20.43;17.23;;;5.20;99.90;;;;;;5138079;27;20471;-36
2021/01/31 12:39:58;;;;;;;19.00;14.47;;;5.20;99.90;;;;;;5137623;28;20823;-35
2021/01/31 12:42:25;;;;;;;18.90;16.17;;;5.20;99.90;;;;;;5136751;27;20522;-36
2021/01/31 12:44:50;;;;;;;22.70;16.80;;;5.00;99.90;;;;;;5138004;27;20187;-36
2021/01/31 12:47:16;;;;;;;17.33;15.53;;;4.90;99.90;;;;;;5138041;27;20687;-35
2021/01/31 12:49:43;;;;;;;18.20;15.67;;;5.00;99.90;;;;;;5138628;28;20191;-37
2021/01/31 12:52:09;;;;;;;20.90;16.30;;;5.00;99.90;;;;;;5138033;27;20412;-36
2021/01/31 12:54:35;;;;;;;17.33;14.27;;;5.00;99.90;;;;;;5138641;27;20421;-36
2021/01/31 12:57:01;;;;;;;17.60;15.10;;;5.00;99.90;;;;;;5137641;28;20880;-36
2021/01/31 12:59:27;;;;;;;18.97;16.50;;;4.90;99.90;;;;;;5124719;28;20453;-35
2021/01/31 13:01:53;;;;;;;21.20;17.83;;;4.90;99.90;;;;;;5135840;27;20428;-36
2021/01/31 13:04:19;;;;;;;21.27;16.07;;;4.80;99.90;;;;;;5136070;28;20473;-35
2021/01/31 13:06:45;;;;;;;20.43;16.77;;;4.80;99.90;;;;;;5127320;28;20416;-36
2021/01/31 13:09:11;;;;;;;20.57;16.70;;;4.80;99.90;;;;;;5129411;28;20563;-37
2021/01/31 13:11:37;;;;;;;21.30;16.20;;;4.80;99.90;;;;;;5127004;28;20183;-36